createdAt,value
2023-02-12T00:01:32.077Z,12.97
2023-02-12T00:03:59.605Z,10.23
2023-02-12T00:06:27.425Z,9.77
2023-02-12T00:08:55.783Z,13.17
2023-02-12T00:11:24.720Z,11.83
2023-02-12T00:13:53.744Z,11.07
2023-02-12T00:16:22.047Z,12.87
2023-02-12T00:18:51.975Z,11.97
2023-02-12T00:21:19.637Z,11.30
2023-02-12T00:23:47.095Z,12.47
2023-02-12T00:26:16.329Z,12.27
2023-02-12T00:28:47.254Z,12.30
2023-02-12T00:31:17.616Z,13.57
2023-02-12T00:33:45.235Z,12.87
2023-02-12T00:36:15.634Z,9.40
2023-02-12T00:38:43.007Z,11.03
2023-02-12T00:41:11.021Z,11.30
2023-02-12T00:43:38.449Z,12.47
2023-02-12T00:46:06.963Z,12.13
2023-02-12T00:48:35.874Z,11.50
2023-02-12T00:51:03.526Z,12.20
2023-02-12T00:53:31.636Z,11.77
2023-02-12T00:55:59.037Z,13.23
2023-02-12T00:58:26.402Z,11.97
2023-02-12T01:00:54.295Z,10.93
2023-02-12T01:03:23.986Z,11.80
2023-02-12T01:05:54.409Z,11.53
2023-02-12T01:08:21.979Z,12.73
2023-02-12T01:10:56.091Z,13.27
2023-02-12T01:13:23.901Z,12.50
2023-02-12T01:15:51.404Z,12.87
2023-02-12T01:18:18.764Z,12.20
2023-02-12T01:20:46.123Z,13.00
2023-02-12T01:23:14.780Z,12.80
2023-02-12T01:25:42.126Z,13.50
2023-02-12T01:28:10.713Z,13.50
2023-02-12T01:30:38.062Z,11.83
2023-02-12T01:33:06.074Z,6.17
2023-02-12T01:35:34.056Z,9.73
2023-02-12T01:38:01.403Z,11.93
2023-02-12T01:40:30.080Z,5.70
2023-02-12T01:43:00.992Z,11.70
2023-02-12T01:45:44.017Z,13.47
2023-02-12T01:48:11.606Z,10.30
2023-02-12T01:50:39.477Z,10.47
2023-02-12T01:53:06.848Z,13.43
2023-02-12T01:55:35.588Z,11.03
2023-02-12T01:58:03.482Z,13.30
2023-02-12T02:00:30.816Z,8.87
2023-02-12T02:03:01.234Z,11.37
2023-02-12T02:05:32.018Z,12.33
2023-02-12T02:07:59.526Z,11.93
2023-02-12T02:10:26.869Z,13.00
2023-02-12T02:13:13.756Z,12.97
2023-02-12T02:15:42.850Z,11.03
2023-02-12T02:18:12.643Z,9.70
2023-02-12T02:21:05.645Z,12.83
2023-02-12T02:23:48.720Z,12.57
2023-02-12T02:26:37.037Z,12.20
2023-02-12T02:29:18.621Z,13.27
2023-02-12T02:31:48.383Z,13.27
2023-02-12T02:34:19.292Z,13.13
2023-02-12T02:37:00.254Z,12.87
2023-02-12T02:39:30.307Z,12.37
2023-02-12T02:42:01.488Z,12.20
2023-02-12T02:44:29.829Z,12.83
2023-02-12T02:46:59.300Z,12.00
2023-02-12T02:49:30.270Z,12.37
2023-02-12T02:52:01.831Z,11.20
2023-02-12T02:54:31.831Z,9.43
2023-02-12T02:57:01.726Z,11.10
2023-02-12T02:59:31.710Z,11.70
2023-02-12T03:02:02.493Z,12.60
2023-02-12T03:04:33.298Z,12.63
2023-02-12T03:07:04.660Z,12.67
2023-02-12T03:09:35.068Z,12.17
2023-02-12T03:12:04.243Z,12.10
2023-02-12T03:14:33.264Z,12.70
2023-02-12T03:17:03.683Z,10.43
2023-02-12T03:19:32.614Z,13.27
2023-02-12T03:22:03.153Z,13.07
2023-02-12T03:24:33.232Z,12.70
2023-02-12T03:27:04.173Z,12.37
2023-02-12T03:29:32.279Z,10.70
2023-02-12T03:32:05.324Z,12.73
2023-02-12T03:34:36.804Z,9.40
2023-02-12T03:37:06.905Z,13.70
2023-02-12T03:39:36.263Z,11.00
2023-02-12T03:42:06.452Z,13.77
2023-02-12T03:44:45.330Z,12.97
2023-02-12T03:47:17.385Z,13.37
2023-02-12T03:49:49.759Z,13.70
2023-02-12T03:52:17.167Z,13.27
2023-02-12T03:54:44.575Z,14.30
2023-02-12T03:57:14.607Z,12.67
2023-02-12T03:59:44.304Z,13.57
2023-02-12T04:02:11.993Z,14.17
2023-02-12T04:04:40.850Z,14.57
2023-02-12T04:07:08.399Z,14.03
2023-02-12T04:09:35.750Z,12.83
2023-02-12T04:12:08.353Z,15.03
2023-02-12T04:14:42.090Z,13.60
2023-02-12T04:17:14.907Z,13.50
2023-02-12T04:19:50.500Z,13.33
2023-02-12T04:22:24.463Z,12.60
2023-02-12T04:24:56.546Z,12.27
2023-02-12T04:27:26.449Z,11.57
2023-02-12T04:29:56.383Z,10.73
2023-02-12T04:32:28.540Z,10.43
2023-02-12T04:34:59.801Z,10.90
2023-02-12T04:37:29.675Z,12.03
2023-02-12T04:39:57.502Z,10.47
2023-02-12T04:42:24.854Z,10.70
2023-02-12T04:44:52.214Z,12.13
2023-02-12T04:47:19.574Z,12.37
2023-02-12T04:49:47.660Z,11.73
2023-02-12T04:52:16.415Z,12.23
2023-02-12T04:54:43.789Z,11.37
2023-02-12T04:57:11.187Z,12.50
2023-02-12T04:59:38.515Z,12.57
2023-02-12T05:02:06.130Z,11.93
2023-02-12T05:04:33.477Z,12.90
2023-02-12T05:07:00.912Z,11.50
2023-02-12T05:09:29.595Z,11.97
2023-02-12T05:11:56.963Z,11.80
2023-02-12T05:14:25.220Z,12.07
2023-02-12T05:16:52.586Z,12.17
2023-02-12T05:19:19.937Z,10.87
2023-02-12T05:21:50.322Z,12.17
2023-02-12T05:24:17.688Z,11.60
2023-02-12T05:26:46.435Z,11.90
2023-02-12T05:29:13.774Z,11.57
2023-02-12T05:31:41.264Z,11.93
2023-02-12T05:34:10.827Z,10.53
2023-02-12T05:36:38.555Z,10.97
2023-02-12T05:39:07.250Z,11.47
2023-02-12T05:41:35.617Z,10.93
2023-02-12T05:44:04.906Z,10.43
2023-02-12T05:46:32.544Z,11.20
2023-02-12T05:49:00.204Z,11.43
2023-02-12T05:51:27.864Z,10.70
2023-02-12T05:53:58.792Z,10.70
2023-02-12T05:56:26.960Z,11.20
2023-02-12T05:58:55.953Z,11.77
2023-02-12T06:01:25.948Z,11.03
2023-02-12T06:03:53.336Z,11.83
2023-02-12T06:06:20.688Z,10.90
2023-02-12T06:08:48.679Z,11.60
2023-02-12T06:11:17.378Z,11.67
2023-02-12T06:13:44.983Z,11.80
2023-02-12T06:16:17.514Z,11.27
2023-02-12T06:18:46.247Z,11.57
2023-02-12T06:21:13.711Z,10.33
2023-02-12T06:23:41.096Z,10.27
2023-02-12T06:26:08.475Z,10.30
2023-02-12T06:28:36.561Z,11.37
2023-02-12T06:31:04.283Z,10.87
2023-02-12T06:33:32.130Z,9.73
2023-02-12T06:36:03.554Z,10.10
2023-02-12T06:38:30.918Z,10.00
2023-02-12T06:40:58.279Z,9.67
2023-02-12T06:43:25.624Z,9.90
2023-02-12T06:45:53.279Z,10.37
2023-02-12T06:48:20.984Z,9.77
2023-02-12T06:50:48.436Z,9.30
2023-02-12T06:53:17.107Z,10.00
2023-02-12T06:55:44.919Z,10.40
2023-02-12T06:58:12.251Z,11.03
2023-02-12T07:00:40.421Z,10.67
2023-02-12T07:03:07.899Z,11.37
2023-02-12T07:05:37.823Z,10.07
2023-02-12T07:08:05.285Z,11.00
2023-02-12T07:10:33.980Z,10.23
2023-02-12T07:13:01.320Z,10.37
2023-02-12T07:15:28.659Z,10.43
2023-02-12T07:17:55.997Z,9.93
2023-02-12T07:20:23.599Z,9.23
2023-02-12T07:22:50.931Z,10.30
2023-02-12T07:25:18.724Z,10.80
2023-02-12T07:27:47.481Z,10.30
2023-02-12T07:30:15.302Z,10.80
2023-02-12T07:32:42.652Z,10.20
2023-02-12T07:35:10.061Z,9.87
2023-02-12T07:37:37.436Z,10.43
2023-02-12T07:40:05.199Z,10.80
2023-02-12T07:42:32.851Z,10.20
2023-02-12T07:45:07.762Z,10.40
2023-02-12T07:47:38.361Z,10.70
2023-02-12T07:50:07.657Z,10.77
2023-02-12T07:52:35.047Z,10.93
2023-02-12T07:55:02.777Z,10.20
2023-02-12T07:57:30.358Z,10.03
2023-02-12T07:59:57.710Z,10.37
2023-02-12T08:02:26.580Z,10.07
2023-02-12T08:04:57.011Z,10.87
2023-02-12T08:07:24.508Z,11.30
2023-02-12T08:09:51.914Z,10.23
2023-02-12T08:12:19.468Z,10.80
2023-02-12T08:14:46.874Z,10.63
2023-02-12T08:17:14.333Z,10.67
2023-02-12T08:19:43.015Z,11.23
2023-02-12T08:22:10.464Z,9.17
2023-02-12T08:24:37.816Z,9.83
2023-02-12T08:27:06.203Z,9.43
2023-02-12T08:29:33.641Z,9.50
2023-02-12T08:32:01.861Z,9.27
2023-02-12T08:34:30.139Z,9.33
2023-02-12T08:36:59.792Z,8.20
2023-02-12T08:39:28.316Z,7.70
2023-02-12T08:41:56.486Z,7.60
2023-02-12T08:44:23.847Z,6.60
2023-02-12T08:46:52.346Z,7.17
2023-02-12T08:49:20.992Z,7.00
2023-02-12T08:51:50.341Z,7.10
2023-02-12T08:54:20.384Z,6.50
2023-02-12T08:56:47.755Z,6.60
2023-02-12T08:59:16.360Z,6.10
2023-02-12T09:01:44.499Z,6.47
2023-02-12T09:04:15.092Z,6.33
2023-02-12T09:06:42.797Z,6.00
2023-02-12T09:09:10.186Z,5.00
2023-02-12T09:11:39.152Z,4.80
2023-02-12T09:14:07.991Z,4.67
2023-02-12T09:16:35.937Z,4.73
2023-02-12T09:19:03.675Z,4.90
2023-02-12T09:21:31.107Z,4.07
2023-02-12T09:23:58.899Z,3.97
2023-02-12T09:26:26.873Z,3.87
2023-02-12T09:28:55.876Z,4.23
2023-02-12T09:31:26.610Z,4.07
2023-02-12T09:33:55.326Z,4.23
2023-02-12T09:36:23.020Z,4.13
2023-02-12T09:38:50.419Z,3.93
2023-02-12T09:41:25.236Z,3.90
2023-02-12T09:43:54.784Z,3.87
2023-02-12T09:46:26.628Z,3.73
2023-02-12T09:49:00.603Z,3.33
2023-02-12T09:51:29.325Z,3.90
2023-02-12T09:54:02.757Z,3.73
2023-02-12T09:56:30.302Z,3.80
2023-02-12T09:59:00.464Z,3.83
2023-02-12T10:01:29.553Z,3.90
2023-02-12T10:03:57.578Z,4.30
2023-02-12T10:06:26.404Z,4.33
2023-02-12T10:09:03.158Z,4.33
2023-02-12T10:11:41.704Z,4.47
2023-02-12T10:14:27.826Z,4.43
2023-02-12T10:17:02.910Z,4.40
2023-02-12T10:19:39.301Z,4.80
2023-02-12T10:22:14.414Z,4.63
2023-02-12T10:24:59.114Z,4.40
2023-02-12T10:27:38.009Z,4.83
2023-02-12T10:30:07.738Z,4.60
2023-02-12T10:32:37.954Z,4.23
2023-02-12T10:35:13.529Z,4.27
2023-02-12T10:37:44.728Z,4.50
2023-02-12T10:40:17.907Z,4.10
2023-02-12T10:42:46.069Z,4.67
2023-02-12T10:45:14.946Z,4.60
2023-02-12T10:47:44.827Z,3.97
2023-02-12T10:50:18.452Z,3.83
2023-02-12T10:52:48.051Z,4.30
2023-02-12T10:55:25.971Z,4.13
2023-02-12T10:57:53.588Z,3.73
2023-02-12T11:00:25.215Z,4.03
2023-02-12T11:03:05.489Z,3.77
2023-02-12T11:05:35.646Z,3.83
2023-02-12T11:08:03.349Z,3.10
2023-02-12T11:10:32.698Z,3.13
2023-02-12T11:13:00.618Z,3.40
2023-02-12T11:15:28.614Z,3.10
2023-02-12T11:17:57.306Z,3.27
2023-02-12T11:20:28.060Z,3.90
2023-02-12T11:22:56.898Z,2.90
2023-02-12T11:25:25.144Z,3.00
2023-02-12T11:28:07.136Z,3.70
2023-02-12T11:30:34.742Z,3.40
2023-02-12T11:33:18.235Z,3.27
2023-02-12T11:35:54.399Z,3.30
2023-02-12T11:38:24.619Z,2.80
2023-02-12T11:40:54.176Z,2.67
2023-02-12T11:43:21.867Z,2.73
2023-02-12T11:45:52.495Z,2.47
2023-02-12T11:48:20.909Z,3.13
2023-02-12T11:50:49.405Z,2.87
2023-02-12T11:53:22.723Z,2.60
2023-02-12T11:55:55.062Z,2.70
2023-02-12T11:58:23.284Z,2.57
2023-02-12T12:00:54.458Z,2.67
2023-02-12T12:03:24.197Z,2.73
2023-02-12T12:05:53.550Z,2.50
2023-02-12T12:08:25.299Z,2.80
2023-02-12T12:10:56.372Z,3.00
2023-02-12T12:13:26.088Z,2.43
2023-02-12T12:16:15.878Z,3.00
2023-02-12T12:19:03.664Z,2.47
2023-02-12T12:21:35.681Z,3.00
2023-02-12T12:24:10.065Z,2.67
2023-02-12T12:26:40.351Z,2.80
2023-02-12T12:29:14.020Z,2.73
2023-02-12T12:31:43.687Z,2.77
2023-02-12T12:34:12.747Z,3.00
2023-02-12T12:37:02.144Z,2.57
2023-02-12T12:39:35.659Z,2.80
2023-02-12T12:42:17.928Z,2.90
2023-02-12T12:44:51.464Z,2.90
2023-02-12T12:47:22.842Z,3.80
2023-02-12T12:50:05.124Z,3.27
2023-02-12T12:52:50.153Z,3.30
2023-02-12T12:55:33.908Z,3.37
2023-02-12T12:58:07.276Z,3.47
2023-02-12T13:00:42.203Z,3.20
2023-02-12T13:03:28.655Z,3.57
2023-02-12T13:06:13.700Z,3.93
2023-02-12T13:08:48.428Z,3.50
2023-02-12T13:11:23.354Z,2.17
2023-02-12T13:13:51.553Z,2.97
2023-02-12T13:16:22.446Z,2.23
2023-02-12T13:18:56.144Z,2.50
2023-02-12T13:21:30.364Z,2.60
2023-02-12T13:24:00.164Z,2.70
2023-02-12T13:26:32.985Z,2.00
2023-02-12T13:29:03.147Z,1.77
2023-02-12T13:31:33.987Z,1.37
2023-02-12T13:34:03.493Z,1.93
2023-02-12T13:36:30.965Z,2.00
2023-02-12T13:39:01.585Z,2.57
2023-02-12T13:41:30.745Z,2.50
2023-02-12T13:44:02.675Z,1.93
2023-02-12T13:46:32.570Z,2.10
2023-02-12T13:49:05.781Z,1.83
2023-02-12T13:51:40.831Z,2.17
2023-02-12T13:54:14.574Z,2.20
2023-02-12T13:56:44.417Z,2.50
2023-02-12T13:59:30.231Z,2.90
2023-02-12T14:01:58.114Z,2.57
2023-02-12T14:04:28.525Z,2.63
2023-02-12T14:06:59.810Z,2.80
2023-02-12T14:09:32.266Z,2.77
2023-02-12T14:12:02.074Z,3.10
2023-02-12T14:14:32.204Z,3.23
2023-02-12T14:17:19.713Z,2.83
2023-02-12T14:19:57.523Z,3.10
2023-02-12T14:22:52.190Z,3.63
2023-02-12T14:25:39.109Z,4.40
2023-02-12T14:28:20.836Z,4.47
2023-02-12T14:31:08.273Z,4.43
2023-02-12T14:33:35.698Z,4.27
2023-02-12T14:36:16.843Z,3.90
2023-02-12T14:39:04.747Z,6.27
2023-02-12T14:41:38.474Z,4.27
2023-02-12T14:44:26.701Z,4.73
2023-02-12T14:46:55.997Z,6.47
2023-02-12T14:49:25.764Z,6.30
2023-02-12T14:51:54.996Z,6.23
2023-02-12T14:54:26.774Z,5.00
2023-02-12T14:56:55.511Z,3.50
2023-02-12T14:59:24.755Z,3.47
2023-02-12T15:01:52.945Z,3.50
2023-02-12T15:04:25.351Z,3.10
2023-02-12T15:06:55.804Z,3.27
2023-02-12T15:09:27.551Z,3.07
2023-02-12T15:11:59.894Z,2.47
2023-02-12T15:14:29.028Z,2.93
2023-02-12T15:16:59.941Z,3.33
2023-02-12T15:19:35.246Z,3.00
2023-02-12T15:22:02.599Z,2.90
2023-02-12T15:24:29.995Z,3.97
2023-02-12T15:26:58.462Z,3.70
2023-02-12T15:29:28.102Z,2.97
2023-02-12T15:31:56.723Z,3.30
2023-02-12T15:34:25.737Z,2.87
2023-02-12T15:36:55.921Z,3.43
2023-02-12T15:39:23.645Z,3.03
2023-02-12T15:41:52.106Z,2.97
2023-02-12T15:44:24.833Z,3.70
2023-02-12T15:46:56.335Z,3.00
2023-02-12T15:49:27.360Z,3.10
2023-02-12T15:51:56.572Z,3.27
2023-02-12T15:54:24.064Z,3.60
2023-02-12T15:56:51.476Z,4.40
2023-02-12T15:59:20.916Z,5.03
2023-02-12T16:01:54.178Z,4.13
2023-02-12T16:04:22.004Z,4.37
2023-02-12T16:06:50.068Z,4.90
2023-02-12T16:09:19.758Z,5.17
2023-02-12T16:11:48.167Z,5.40
2023-02-12T16:14:20.797Z,5.10
2023-02-12T16:16:49.742Z,5.00
2023-02-12T16:19:19.328Z,7.13
2023-02-12T16:21:48.526Z,6.07
2023-02-12T16:24:37.024Z,7.70
2023-02-12T16:27:09.293Z,4.53
2023-02-12T16:29:38.483Z,4.40
2023-02-12T16:32:05.947Z,4.53
2023-02-12T16:34:35.472Z,4.30
2023-02-12T16:37:03.159Z,4.03
2023-02-12T16:39:49.320Z,4.17
2023-02-12T16:42:19.175Z,4.87
2023-02-12T16:44:46.510Z,4.67
2023-02-12T16:47:20.359Z,5.27
2023-02-12T16:49:54.247Z,5.30
2023-02-12T16:52:29.298Z,5.23
2023-02-12T16:54:56.767Z,5.67
2023-02-12T16:57:25.987Z,6.73
2023-02-12T16:59:53.347Z,5.70
2023-02-12T17:02:20.815Z,5.83
2023-02-12T17:04:48.148Z,5.73
2023-02-12T17:07:18.539Z,6.30
2023-02-12T17:09:45.918Z,6.80
2023-02-12T17:12:13.296Z,5.83
2023-02-12T17:14:41.964Z,6.07
2023-02-12T17:17:09.425Z,5.97
2023-02-12T17:19:36.869Z,6.27
2023-02-12T17:22:05.985Z,7.87
2023-02-12T17:24:34.182Z,7.10
2023-02-12T17:27:02.039Z,7.57
2023-02-12T17:29:30.651Z,7.37
2023-02-12T17:31:59.669Z,7.17
2023-02-12T17:34:28.748Z,6.83
2023-02-12T17:36:57.916Z,7.60
2023-02-12T17:39:25.320Z,7.17
2023-02-12T17:41:52.674Z,6.47
2023-02-12T17:44:20.035Z,6.47
2023-02-12T17:46:47.423Z,6.00
2023-02-12T17:49:16.087Z,7.13
2023-02-12T17:51:43.633Z,6.33
2023-02-12T17:54:11.105Z,6.30
2023-02-12T17:56:38.454Z,6.80
2023-02-12T17:59:05.841Z,7.37
2023-02-12T18:01:34.495Z,6.67
2023-02-12T18:04:01.920Z,6.07
2023-02-12T18:06:31.796Z,5.83
2023-02-12T18:09:01.527Z,7.03
2023-02-12T18:11:29.934Z,5.83
2023-02-12T18:13:58.373Z,5.63
2023-02-12T18:16:26.905Z,6.57
2023-02-12T18:18:54.680Z,6.13
2023-02-12T18:21:22.176Z,6.20
2023-02-12T18:23:50.892Z,6.27
2023-02-12T18:26:19.146Z,6.30
2023-02-12T18:28:46.909Z,6.53
2023-02-12T18:31:14.800Z,6.87
2023-02-12T18:33:42.198Z,6.93
2023-02-12T18:36:11.264Z,6.77
2023-02-12T18:38:39.727Z,7.07
2023-02-12T18:41:09.134Z,6.20
2023-02-12T18:43:37.076Z,6.33
2023-02-12T18:46:08.169Z,6.30
2023-02-12T18:48:35.555Z,6.03
2023-02-12T18:51:03.346Z,5.83
2023-02-12T18:53:30.967Z,5.37
2023-02-12T18:55:58.839Z,5.73
2023-02-12T18:58:27.550Z,5.30
2023-02-12T19:00:55.207Z,5.13
2023-02-12T19:03:23.016Z,6.00
2023-02-12T19:05:50.463Z,5.97
2023-02-12T19:08:17.933Z,5.33
2023-02-12T19:10:48.194Z,5.50
2023-02-12T19:13:15.631Z,5.37
2023-02-12T19:15:44.437Z,4.73
2023-02-12T19:18:11.807Z,5.10
2023-02-12T19:20:40.454Z,5.17
2023-02-12T19:23:07.914Z,5.40
2023-02-12T19:25:35.686Z,5.37
2023-02-12T19:28:03.112Z,4.30
2023-02-12T19:30:30.591Z,5.23
2023-02-12T19:32:59.858Z,4.70
2023-02-12T19:35:27.317Z,5.57
2023-02-12T19:37:54.790Z,7.03
2023-02-12T19:40:22.289Z,10.63
2023-02-12T19:42:49.916Z,9.03
2023-02-12T19:45:17.362Z,8.23
2023-02-12T19:47:44.776Z,12.87
2023-02-12T19:50:13.501Z,8.43
2023-02-12T19:52:41.343Z,6.70
2023-02-12T19:55:08.928Z,6.83
2023-02-12T19:57:38.533Z,7.10
2023-02-12T20:00:06.656Z,6.90
2023-02-12T20:02:34.190Z,7.57
2023-02-12T20:05:03.879Z,7.30
2023-02-12T20:07:41.319Z,7.80
2023-02-12T20:10:08.946Z,8.47
2023-02-12T20:12:40.062Z,8.27
2023-02-12T20:15:07.801Z,7.23
2023-02-12T20:17:35.258Z,7.17
2023-02-12T20:20:02.649Z,6.20
2023-02-12T20:22:30.170Z,5.53
2023-02-12T20:24:58.969Z,4.60
2023-02-12T20:27:26.626Z,3.93
2023-02-12T20:29:54.090Z,4.63
2023-02-12T20:32:21.553Z,5.00
2023-02-12T20:34:51.391Z,4.60
2023-02-12T20:41:13.883Z,4.73
2023-02-12T20:43:41.282Z,4.93
2023-02-12T20:46:09.739Z,4.40
2023-02-12T20:48:37.637Z,4.07
2023-02-12T20:51:05.372Z,4.90
2023-02-12T20:53:33.788Z,4.60
2023-02-12T20:56:01.891Z,4.37
2023-02-12T20:58:31.007Z,4.37
2023-02-12T21:01:05.995Z,5.03
2023-02-12T21:03:34.160Z,4.17
2023-02-12T21:06:08.708Z,4.33
2023-02-12T21:08:36.574Z,5.30
2023-02-12T21:11:06.593Z,5.73
2023-02-12T21:13:38.830Z,9.63
2023-02-12T21:16:07.763Z,5.77
2023-02-12T21:18:36.492Z,10.20
2023-02-12T21:21:07.335Z,11.73
2023-02-12T21:23:38.869Z,7.27
2023-02-12T21:26:07.218Z,8.10
2023-02-12T21:28:36.483Z,8.40
2023-02-12T21:31:10.953Z,8.27
2023-02-12T21:33:41.838Z,10.83
2023-02-12T21:36:12.939Z,10.93
2023-02-12T21:38:41.636Z,10.63
2023-02-12T21:41:14.586Z,12.40
2023-02-12T21:43:45.317Z,9.80
2023-02-12T21:46:15.304Z,10.27
2023-02-12T21:48:43.923Z,8.00
2023-02-12T21:51:17.838Z,7.33
2023-02-12T21:53:46.313Z,6.97
2023-02-12T21:56:15.920Z,6.73
2023-02-12T21:58:51.118Z,6.23
2023-02-12T22:01:20.471Z,6.43
2023-02-12T22:03:48.692Z,5.83
2023-02-12T22:06:19.311Z,5.40
2023-02-12T22:08:47.216Z,6.87
2023-02-12T22:11:15.112Z,6.10
2023-02-12T22:13:43.532Z,5.10
2023-02-12T22:16:13.558Z,4.70
2023-02-12T22:18:42.537Z,5.63
2023-02-12T22:21:13.595Z,6.13
2023-02-12T22:23:42.275Z,6.30
2023-02-12T22:26:11.015Z,6.63
2023-02-12T22:28:40.109Z,6.47
2023-02-12T22:31:08.084Z,6.93
2023-02-12T22:33:40.798Z,6.17
2023-02-12T22:36:12.981Z,6.93
2023-02-12T22:38:41.701Z,7.03
2023-02-12T22:41:09.947Z,7.17
2023-02-12T22:43:43.038Z,7.17
2023-02-12T22:46:13.098Z,7.57
2023-02-12T22:48:45.170Z,7.33
2023-02-12T22:51:14.534Z,7.40
2023-02-12T22:53:42.924Z,6.90
2023-02-12T22:56:11.684Z,6.73
2023-02-12T22:58:42.546Z,7.37
2023-02-12T23:01:11.470Z,6.30
2023-02-12T23:03:39.081Z,6.57
2023-02-12T23:06:10.308Z,6.33
2023-02-12T23:08:41.128Z,5.97
2023-02-12T23:11:09.963Z,6.00
2023-02-12T23:13:37.578Z,7.10
2023-02-12T23:16:06.440Z,7.03
2023-02-12T23:18:36.222Z,6.43
2023-02-12T23:21:06.526Z,6.67
2023-02-12T23:23:35.671Z,6.77
2023-02-12T23:26:06.316Z,6.50
2023-02-12T23:28:35.552Z,6.97
2023-02-12T23:31:03.628Z,6.83
2023-02-12T23:33:35.582Z,7.53
2023-02-12T23:36:03.006Z,6.37
2023-02-12T23:38:30.614Z,6.57
2023-02-12T23:41:02.314Z,6.77
2023-02-12T23:43:30.785Z,6.83
2023-02-12T23:45:58.657Z,6.77
2023-02-12T23:48:26.413Z,6.37
2023-02-12T23:50:56.017Z,6.63
2023-02-12T23:53:23.950Z,7.13
2023-02-12T23:55:52.176Z,7.30
2023-02-12T23:58:23.864Z,7.60
